Time;durP1;ratioP1;P1;durP2;ratioP2;P2;SDS_P1;SDS_P2;PMS_P1;PMS_P2;Temp;Humidity;BMP_temperature;BMP_pressure;BME280_temperature;BME280_humidity;BME280_pressure;Samples;Min_cycle;Max_cycle;Signal;HPM_P1;HPM_P2
2022/10/17 00:02:17;;;;;;;;;;;;;;;21.42;64.64;100097.63;7316395;19;129157;-38
2022/10/17 00:04:42;;;;;;;;;;;;;;;21.42;65.03;100095.81;7317365;19;129244;-39
2022/10/17 00:07:07;;;;;;;;;;;;;;;21.43;64.47;100092.28;7315916;19;130134;-39
2022/10/17 00:09:33;;;;;;;;;;;;;;;21.43;64.40;100092.28;7316127;19;130492;-38
2022/10/17 00:11:58;;;;;;;;;;;;;;;21.39;64.83;100090.84;7316853;19;130178;-37
2022/10/17 00:14:23;;;;;;;;;;;;;;;21.43;64.20;100094.06;7315861;19;129249;-39
2022/10/17 00:16:48;;;;;;;;;;;;;;;21.45;64.67;100095.56;7316086;19;130111;-40
2022/10/17 00:19:14;;;;;;;;;;;;;;;21.47;64.55;100098.09;7317092;19;130863;-38
2022/10/17 00:21:39;;;;;;;;;;;;;;;21.48;63.98;100100.56;7314766;19;130361;-38
2022/10/17 00:24:04;;;;;;;;;;;;;;;21.44;64.89;100099.16;7313253;19;129124;-40
2022/10/17 00:26:29;;;;;;;;;;;;;;;21.45;64.11;100097.38;7315413;19;129088;-39
2022/10/17 00:28:55;;;;;;;;;;;;;;;21.45;64.31;100094.75;7316483;19;129728;-39
2022/10/17 00:31:21;;;;;;;;;;;;;;;21.39;64.43;100090.84;7316801;19;129297;-39
2022/10/17 00:33:46;;;;;;;;;;;;;;;21.42;64.34;100106.28;7312664;19;129264;-40
2022/10/17 00:36:17;;;;;;;;;;;;;;;21.44;64.93;100112.22;7314631;19;130016;-38
2022/10/17 00:38:43;;;;;;;;;;;;;;;21.39;65.14;100103.94;7315113;19;130263;-39
2022/10/17 00:41:09;;;;;;;;;;;;;;;21.40;64.31;100110.81;7315665;19;129865;-38
2022/10/17 00:43:53;;;;;;;;;;;;;;;21.42;64.74;100101.06;7313695;19;131171;-39
2022/10/17 00:46:20;;;;;;;;;;;;;;;21.40;64.17;100110.81;7314949;19;129611;-39
2022/10/17 00:48:47;;;;;;;;;;;;;;;21.41;64.27;100109.88;7315067;19;130274;-38
2022/10/17 00:51:13;;;;;;;;;;;;;;;21.33;65.00;100088.75;7315849;19;129255;-39
2022/10/17 00:53:38;;;;;;;;;;;;;;;21.46;63.97;100102.47;7313449;19;129322;-38
2022/10/17 00:56:03;;;;;;;;;;;;;;;21.43;64.52;100101.91;7314780;19;129213;-39
2022/10/17 00:58:29;;;;;;;;;;;;;;;21.43;64.79;100110.59;7315693;19;130104;-40
2022/10/17 01:00:54;;;;;;;;;;;;;;;21.43;64.42;100107.13;7316425;19;129480;-37
2022/10/17 01:03:19;;;;;;;;;;;;;;;21.43;64.52;100092.28;7314125;19;129134;-39
2022/10/17 01:05:45;;;;;;;;;;;;;;;21.37;64.38;100076.25;7314844;19;129524;-37
2022/10/17 01:08:11;;;;;;;;;;;;;;;21.46;64.32;100101.63;7313645;19;129964;-38
2022/10/17 01:10:54;;;;;;;;;;;;;;;21.44;64.42;100099.16;7315742;19;129813;-40
2022/10/17 01:13:28;;;;;;;;;;;;;;;21.35;64.05;100086.84;7314616;19;130638;-41
2022/10/17 01:16:14;;;;;;;;;;;;;;;21.40;64.80;100100.34;7316224;19;129786;-40
2022/10/17 01:18:39;;;;;;;;;;;;;;;21.34;64.35;100085.16;7314204;19;130552;-38
2022/10/17 01:21:05;;;;;;;;;;;;;;;21.48;64.11;100105.81;7316670;19;129453;-39
2022/10/17 01:23:36;;;;;;;;;;;;;;;21.50;64.58;100103.88;7312554;19;130212;-39
2022/10/17 01:26:19;;;;;;;;;;;;;;;21.45;64.10;100100.81;7314331;19;129549;-40
2022/10/17 01:29:00;;;;;;;;;;;;;;;21.34;64.71;100085.16;7313637;19;130424;-38
2022/10/17 01:31:35;;;;;;;;;;;;;;;21.44;64.92;100099.16;7313601;19;129001;-40
2022/10/17 01:34:00;;;;;;;;;;;;;;;21.44;64.22;100093.09;7312758;19;128896;-39
2022/10/17 01:36:26;;;;;;;;;;;;;;;21.44;64.35;100096.53;7314047;19;130589;-40
2022/10/17 01:38:56;;;;;;;;;;;;;;;21.40;64.11;100086.47;7314142;19;129948;-39
2022/10/17 01:41:28;;;;;;;;;;;;;;;21.43;64.20;100097.50;7314421;19;129126;-37
2022/10/17 01:44:06;;;;;;;;;;;;;;;21.44;64.60;100100.94;7309887;19;130167;-39
2022/10/17 01:46:35;;;;;;;;;;;;;;;21.43;64.48;100102.75;7313154;19;129185;-39
2022/10/17 01:49:01;;;;;;;;;;;;;;;21.43;65.01;100102.75;7314644;19;130030;-40
2022/10/17 01:51:29;;;;;;;;;;;;;;;21.43;64.68;100097.50;7314994;19;129198;-39
2022/10/17 01:54:00;;;;;;;;;;;;;;;21.43;64.25;100092.28;7312373;19;129135;-40
2022/10/17 01:56:27;;;;;;;;;;;;;;;21.41;64.41;100088.94;7312905;19;129163;-39
2022/10/17 01:58:56;;;;;;;;;;;;;;;21.33;64.36;100075.69;7313291;19;131147;-40
2022/10/17 02:01:23;;;;;;;;;;;;;;;21.41;64.33;100094.19;7313480;19;128911;-40
2022/10/17 02:03:49;;;;;;;;;;;;;;;21.42;64.86;100087.16;7310132;19;129983;-39
2022/10/17 02:06:15;;;;;;;;;;;;;;;21.46;64.97;100088.56;7313753;19;130452;-40
2022/10/17 02:08:44;;;;;;;;;;;;;;;21.46;64.70;100081.56;7313195;19;129184;-38
2022/10/17 02:11:17;;;;;;;;;;;;;;;21.49;63.96;100083.91;7315121;19;130228;-39
2022/10/17 02:13:59;;;;;;;;;;;;;;;21.46;64.26;100085.94;7312067;19;128927;-40
2022/10/17 02:16:27;;;;;;;;;;;;;;;21.42;64.70;100087.97;7311195;19;131670;-38
2022/10/17 02:18:55;;;;;;;;;;;;;;;21.45;64.35;100079.88;7313139;19;129040;-37
2022/10/17 02:21:31;;;;;;;;;;;;;;;21.39;64.52;100063.84;7311283;19;129265;-41
2022/10/17 02:24:04;;;;;;;;;;;;;;;21.46;64.72;100081.56;7311228;19;129457;-39
2022/10/17 02:26:39;;;;;;;;;;;;;;;21.46;64.65;100081.56;7312229;19;129874;-39
2022/10/17 02:29:11;;;;;;;;;;;;;;;21.46;64.20;100072.88;7313087;19;129770;-37
2022/10/17 02:31:46;;;;;;;;;;;;;;;21.45;64.74;100079.88;7312381;19;130890;-38
2022/10/17 02:34:26;;;;;;;;;;;;;;;21.46;64.83;100078.94;7313753;19;129283;-39
2022/10/17 02:36:54;;;;;;;;;;;;;;;21.45;64.75;100069.41;7310570;19;130947;-40
2022/10/17 02:39:21;;;;;;;;;;;;;;;21.46;64.47;100075.47;7314012;19;131008;-40
2022/10/17 02:41:47;;;;;;;;;;;;;;;21.45;64.53;100082.50;7311260;19;129828;-40
2022/10/17 02:44:13;;;;;;;;;;;;;;;21.44;64.05;100083.47;7309717;19;129546;-38
2022/10/17 02:46:40;;;;;;;;;;;;;;;21.34;64.59;100066.88;7311364;19;129625;-40
2022/10/17 02:49:05;;;;;;;;;;;;;;;21.44;64.34;100087.84;7311047;19;129168;-39
2022/10/17 02:51:39;;;;;;;;;;;;;;;21.45;64.82;100086.91;7312886;19;131272;-37
2022/10/17 02:54:05;;;;;;;;;;;;;;;21.46;64.95;100088.56;7312225;19;129103;-39
2022/10/17 02:56:32;;;;;;;;;;;;;;;21.45;64.12;100094.75;7314661;19;130207;-38
2022/10/17 02:58:58;;;;;;;;;;;;;;;21.45;64.63;100092.16;7317995;19;130376;-39
2022/10/17 03:01:24;;;;;;;;;;;;;;;21.43;64.98;100092.28;7318170;19;129650;-40
2022/10/17 03:03:49;;;;;;;;;;;;;;;21.41;64.41;100094.19;7316596;19;129235;-39
2022/10/17 03:06:15;;;;;;;;;;;;;;;21.45;64.18;100082.50;7318401;19;129082;-37
2022/10/17 03:08:40;;;;;;;;;;;;;;;21.33;64.62;100065.22;7320311;19;129486;-40
2022/10/17 03:11:05;;;;;;;;;;;;;;;21.44;65.10;100077.38;7317580;19;130459;-37
2022/10/17 03:13:31;;;;;;;;;;;;;;;21.44;64.87;100078.22;7319416;19;129324;-40
2022/10/17 03:15:56;;;;;;;;;;;;;;;21.46;64.14;100080.72;7318091;19;130355;-40
2022/10/17 03:18:21;;;;;;;;;;;;;;;21.45;64.29;100087.72;7318663;19;130981;-39
2022/10/17 03:20:47;;;;;;;;;;;;;;;21.47;64.99;100088.44;7317446;19;129617;-39
2022/10/17 03:23:12;;;;;;;;;;;;;;;21.44;64.21;100083.47;7313260;19;129545;-38
2022/10/17 03:25:37;;;;;;;;;;;;;;;21.44;64.31;100087.84;7318794;19;130705;-40
2022/10/17 03:28:04;;;;;;;;;;;;;;;21.44;64.48;100078.22;7314082;19;129558;-39
2022/10/17 03:30:29;;;;;;;;;;;;;;;21.46;64.65;100086.78;7317405;19;128792;-39
2022/10/17 03:32:56;;;;;;;;;;;;;;;21.41;64.10;100073.25;7316544;19;129424;-39
2022/10/17 03:35:21;;;;;;;;;;;;;;;21.46;64.19;100086.78;7318176;19;129017;-41
2022/10/17 03:37:46;;;;;;;;;;;;;;;21.46;64.05;100089.41;7314989;19;130570;-38
2022/10/17 03:40:12;;;;;;;;;;;;;;;21.42;64.54;100095.03;7317764;19;128978;-39
2022/10/17 03:42:37;;;;;;;;;;;;;;;21.45;64.39;100100.81;7315958;19;129358;-40
2022/10/17 03:45:02;;;;;;;;;;;;;;;21.45;64.99;100103.41;7318033;19;129215;-38
2022/10/17 03:47:28;;;;;;;;;;;;;;;21.33;65.05;100086.13;7315627;19;129196;-40
2022/10/17 03:49:53;;;;;;;;;;;;;;;21.45;64.28;100100.00;7315137;19;129274;-38
2022/10/17 03:52:18;;;;;;;;;;;;;;;21.42;64.93;100110.72;7316362;19;129312;-40
2022/10/17 03:54:44;;;;;;;;;;;;;;;21.43;64.50;100100.13;7314950;19;130079;-39
2022/10/17 03:57:09;;;;;;;;;;;;;;;21.48;64.72;100105.81;7315681;19;129447;-37
2022/10/17 03:59:34;;;;;;;;;;;;;;;21.49;64.10;100107.44;7316668;19;129177;-40
2022/10/17 04:01:59;;;;;;;;;;;;;;;21.47;64.89;100103.31;7315963;19;128995;-39
2022/10/17 04:04:24;;;;;;;;;;;;;;;21.47;64.29;100103.31;7314203;19;129586;-39
2022/10/17 04:06:50;;;;;;;;;;;;;;;21.45;64.47;100111.25;7316053;19;129781;-40
2022/10/17 04:09:15;;;;;;;;;;;;;;;21.47;64.76;100116.41;7316940;19;129826;-38
2022/10/17 04:11:40;;;;;;;;;;;;;;;21.49;64.57;100117.91;7315942;19;129235;-38
2022/10/17 04:14:05;;;;;;;;;;;;;;;21.45;64.99;100119.13;7317103;19;129625;-38
2022/10/17 04:16:31;;;;;;;;;;;;;;;21.45;64.92;100116.50;7314033;19;130039;-38
2022/10/17 04:18:57;;;;;;;;;;;;;;;21.45;64.93;100116.50;7317361;19;129375;-40
2022/10/17 04:21:23;;;;;;;;;;;;;;;21.48;64.61;100116.28;7314903;19;129477;-40
2022/10/17 04:23:53;;;;;;;;;;;;;;;21.45;64.58;100116.50;7315825;19;129279;-41
2022/10/17 04:26:18;;;;;;;;;;;;;;;21.44;64.75;100117.47;7314329;19;130410;-40
2022/10/17 04:28:43;;;;;;;;;;;;;;;21.35;64.82;100107.78;7317197;19;129108;-37
2022/10/17 04:31:11;;;;;;;;;;;;;;;21.45;64.95;100126.16;7316093;19;129686;-38
2022/10/17 04:33:36;;;;;;;;;;;;;;;21.46;64.77;100128.63;7315578;19;132660;-40
2022/10/17 04:36:03;;;;;;;;;;;;;;;21.46;64.63;100122.56;7315311;19;129737;-40
2022/10/17 04:38:29;;;;;;;;;;;;;;;21.47;64.77;100125.06;7315519;19;129132;-38
2022/10/17 04:40:57;;;;;;;;;;;;;;;21.41;65.23;100117.72;7316888;19;128993;-39
2022/10/17 04:43:22;;;;;;;;;;;;;;;21.34;64.49;100108.72;7313585;19;129359;-41
2022/10/17 04:45:47;;;;;;;;;;;;;;;21.43;64.64;100126.28;7315432;19;130165;-40
2022/10/17 04:48:13;;;;;;;;;;;;;;;21.46;64.74;100125.19;7316092;19;129465;-37
2022/10/17 04:50:38;;;;;;;;;;;;;;;21.50;64.25;100137.88;7315311;19;129372;-37
2022/10/17 04:53:03;;;;;;;;;;;;;;;21.45;64.89;100136.63;7314415;19;129265;-40
2022/10/17 04:55:28;;;;;;;;;;;;;;;21.46;64.55;100139.09;7315231;19;130343;-40
2022/10/17 04:57:54;;;;;;;;;;;;;;;21.48;64.37;100137.19;7313016;19;129312;-41
2022/10/17 05:00:19;;;;;;;;;;;;;;;21.43;65.01;100139.34;7315671;19;128973;-40
2022/10/17 05:02:44;;;;;;;;;;;;;;;21.45;64.43;100147.88;7314753;19;130207;-37
2022/10/17 05:05:09;;;;;;;;;;;;;;;21.49;64.26;100145.84;7315525;19;129827;-40
2022/10/17 05:07:38;;;;;;;;;;;;;;;21.50;64.78;100150.16;7311412;19;128937;-39
2022/10/17 05:10:03;;;;;;;;;;;;;;;21.45;64.88;100153.13;7315256;19;131228;-39
2022/10/17 05:12:29;;;;;;;;;;;;;;;21.48;64.64;100147.66;7314404;19;129785;-38
2022/10/17 05:14:54;;;;;;;;;;;;;;;21.48;64.47;100152.91;7315445;19;129028;-39
2022/10/17 05:17:19;;;;;;;;;;;;;;;21.44;64.65;100151.47;7312055;19;129064;-40
2022/10/17 05:19:44;;;;;;;;;;;;;;;21.46;64.96;100139.09;7312918;19;131220;-38
2022/10/17 05:22:10;;;;;;;;;;;;;;;21.48;64.87;100158.13;7315185;19;129098;-40
2022/10/17 05:24:35;;;;;;;;;;;;;;;21.48;64.36;100145.03;7311232;19;129238;-36
2022/10/17 05:27:00;;;;;;;;;;;;;;;21.40;64.50;100144.81;7312144;19;128815;-41
2022/10/17 05:29:25;;;;;;;;;;;;;;;21.49;64.44;100154.53;7313671;19;129207;-40
2022/10/17 05:31:51;;;;;;;;;;;;;;;21.50;64.56;100156.19;7314165;19;129935;-40
2022/10/17 05:34:16;;;;;;;;;;;;;;;21.50;64.24;100161.41;7313290;19;129700;-39
2022/10/17 05:36:41;;;;;;;;;;;;;;;21.46;64.79;100146.94;7312737;19;128921;-38
2022/10/17 05:39:07;;;;;;;;;;;;;;;21.50;64.78;100166.66;7313725;19;129011;-40
2022/10/17 05:41:32;;;;;;;;;;;;;;;21.47;64.77;100166.91;7311463;19;129079;-39
2022/10/17 05:43:58;;;;;;;;;;;;;;;21.36;64.62;100151.28;7311643;19;129343;-39
2022/10/17 05:46:23;;;;;;;;;;;;;;;21.49;64.36;100170.25;7307969;19;129504;-38
2022/10/17 05:48:49;;;;;;;;;;;;;;;21.47;64.39;100164.28;7312195;19;128971;-40
2022/10/17 05:51:14;;;;;;;;;;;;;;;21.47;64.82;100177.38;7312848;19;129468;-40
2022/10/17 05:53:40;;;;;;;;;;;;;;;21.39;64.59;100160.63;7312539;19;129247;-40
2022/10/17 05:56:07;;;;;;;;;;;;;;;21.48;64.90;100173.81;7312189;19;128992;-40
2022/10/17 05:58:33;;;;;;;;;;;;;;;21.46;64.66;100175.72;7313823;19;128987;-38
2022/10/17 06:01:03;;;;;;;;;;;;;;;21.47;64.56;100187.84;7311280;19;130330;-37
2022/10/17 06:03:28;;;;;;;;;;;;;;;21.50;64.63;100184.16;7311458;19;129859;-39
2022/10/17 06:05:54;;;;;;;;;;;;;;;21.50;64.56;100182.34;7313523;19;129377;-38
2022/10/17 06:08:20;;;;;;;;;;;;;;;21.50;64.15;100192.81;7313184;19;128991;-39
2022/10/17 06:10:49;;;;;;;;;;;;;;;21.50;64.66;100187.59;7312374;19;129699;-41
2022/10/17 06:13:17;;;;;;;;;;;;;;;21.49;64.26;100196.41;7313499;19;131076;-37
2022/10/17 06:15:43;;;;;;;;;;;;;;;21.48;64.67;100193.91;7313453;19;129192;-38
2022/10/17 06:18:08;;;;;;;;;;;;;;;21.39;64.24;100173.72;7313003;19;129313;-36
2022/10/17 06:20:34;;;;;;;;;;;;;;;21.43;64.26;100201.31;7314323;19;129185;-39
2022/10/17 06:22:59;;;;;;;;;;;;;;;21.47;64.32;100202.72;7312063;19;130547;-38
2022/10/17 06:25:24;;;;;;;;;;;;;;;21.47;64.17;100203.53;7313537;19;128990;-40
2022/10/17 06:27:49;;;;;;;;;;;;;;;21.49;65.04;100214.72;7311819;19;130135;-38
2022/10/17 06:30:14;;;;;;;;;;;;;;;21.47;64.51;100208.78;7314257;19;129884;-38
2022/10/17 06:32:40;;;;;;;;;;;;;;;21.50;64.76;100212.94;7313136;19;130494;-40
2022/10/17 06:35:05;;;;;;;;;;;;;;;21.49;64.65;100219.94;7312218;19;128957;-37
2022/10/17 06:37:31;;;;;;;;;;;;;;;21.46;64.97;100216.75;7311479;19;129176;-39
2022/10/17 06:39:57;;;;;;;;;;;;;;;21.48;64.66;100220.91;7313670;19;131695;-40
2022/10/17 06:42:22;;;;;;;;;;;;;;;21.45;64.63;100220.31;7313367;19;129689;-40
2022/10/17 06:44:47;;;;;;;;;;;;;;;21.46;64.13;100221.97;7310432;19;131186;-39
2022/10/17 06:47:13;;;;;;;;;;;;;;;21.48;64.88;100225.31;7310562;19;131081;-40
2022/10/17 06:49:38;;;;;;;;;;;;;;;21.46;64.50;100228.03;7312874;19;130300;-39
2022/10/17 06:52:03;;;;;;;;;;;;;;;21.45;65.12;100231.59;7312417;19;130709;-39
2022/10/17 06:54:29;;;;;;;;;;;;;;;21.44;64.49;100227.34;7312447;19;129284;-40
2022/10/17 06:56:55;;;;;;;;;;;;;;;21.46;64.99;100232.44;7310823;19;129245;-40
2022/10/17 06:59:20;;;;;;;;;;;;;;;21.45;64.33;100236.81;7311807;19;130413;-39
2022/10/17 07:01:45;;;;;;;;;;;;;;;21.47;64.64;100242.78;7312377;19;130255;-39
2022/10/17 07:04:10;;;;;;;;;;;;;;;21.46;64.90;100242.91;7308968;19;131156;-40
2022/10/17 07:06:37;;;;;;;;;;;;;;;21.43;64.57;100246.59;7311214;19;129076;-39
2022/10/17 07:09:05;;;;;;;;;;;;;;;21.49;64.94;100251.34;7311276;19;130545;-37
2022/10/17 07:11:30;;;;;;;;;;;;;;;21.47;65.14;100252.44;7311561;19;130366;-38
2022/10/17 07:13:55;;;;;;;;;;;;;;;21.49;64.69;100255.72;7310993;19;130123;-40
2022/10/17 07:16:21;;;;;;;;;;;;;;;21.37;64.58;100236.63;7310774;19;129404;-39
2022/10/17 07:18:50;;;;;;;;;;;;;;;21.44;64.67;100250.88;7310912;19;130355;-39
2022/10/17 07:21:15;;;;;;;;;;;;;;;21.46;64.71;100259.44;7305846;19;130897;-40
2022/10/17 07:23:40;;;;;;;;;;;;;;;21.47;64.17;100255.84;7308806;19;130194;-39
2022/10/17 07:26:07;;;;;;;;;;;;;;;21.40;64.91;100252.06;7310282;19;129090;-40
2022/10/17 07:28:33;;;;;;;;;;;;;;;21.46;64.81;100263.84;7312159;19;130256;-38
2022/10/17 07:31:02;;;;;;;;;;;;;;;21.48;64.63;100261.94;7310297;19;129349;-39
2022/10/17 07:33:28;;;;;;;;;;;;;;;21.45;64.60;100273.44;7311227;19;129188;-37
2022/10/17 07:35:53;;;;;;;;;;;;;;;21.40;65.12;100251.25;7311188;19;129193;-39
2022/10/17 07:38:18;;;;;;;;;;;;;;;21.49;64.95;100261.81;7306959;19;130334;-36
2022/10/17 07:40:43;;;;;;;;;;;;;;;21.49;64.75;100267.03;7309175;19;130434;-40
2022/10/17 07:43:09;;;;;;;;;;;;;;;21.52;64.39;100274.63;7313870;19;130515;-39
2022/10/17 07:45:34;;;;;;;;;;;;;;;21.49;64.52;100277.50;7318771;19;128936;-39
2022/10/17 07:47:59;;;;;;;;;;;;;;;21.44;64.47;100282.28;7315144;19;130168;-37
2022/10/17 07:50:24;;;;;;;;;;;;;;;21.45;64.58;100273.44;7317087;19;130598;-37
2022/10/17 07:52:50;;;;;;;;;;;;;;;21.50;64.56;100278.34;7317896;19;128842;-39
2022/10/17 07:55:15;;;;;;;;;;;;;;;21.47;64.54;100276.78;7316853;19;129453;-38
2022/10/17 07:57:40;;;;;;;;;;;;;;;21.49;64.96;100277.50;7315487;19;131351;-39
2022/10/17 08:00:06;;;;;;;;;;;;;;;21.47;65.04;100279.41;7316911;19;129555;-38
2022/10/17 08:02:32;;;;;;;;;;;;;;;21.39;64.82;100268.72;7315998;19;130992;-35
2022/10/17 08:04:57;;;;;;;;;;;;;;;21.52;64.02;100289.50;7314991;19;129787;-37
2022/10/17 08:07:22;;;;;;;;;;;;;;;21.53;64.09;100286.78;7315772;19;129552;-39
2022/10/17 08:09:47;;;;;;;;;;;;;;;21.49;64.51;100287.13;7316376;19;129291;-38
2022/10/17 08:12:14;;;;;;;;;;;;;;;21.49;64.32;100289.75;7316038;19;129084;-40
2022/10/17 08:14:39;;;;;;;;;;;;;;;21.49;64.63;100280.13;7316764;19;129612;-39
2022/10/17 08:17:04;;;;;;;;;;;;;;;21.47;64.44;100275.97;7316554;19;129240;-38
2022/10/17 08:19:30;;;;;;;;;;;;;;;21.41;64.51;100272.06;7315388;19;129231;-39
2022/10/17 08:21:57;;;;;;;;;;;;;;;21.37;64.57;100269.81;7315315;19;130787;-39
2022/10/17 08:24:22;;;;;;;;;;;;;;;21.47;64.90;100275.97;7316647;19;129152;-38
2022/10/17 08:26:47;;;;;;;;;;;;;;;21.50;65.02;100281.78;7314273;19;129427;-37
2022/10/17 08:29:13;;;;;;;;;;;;;;;21.47;64.56;100282.03;7313924;19;130552;-40
2022/10/17 08:31:38;;;;;;;;;;;;;;;21.45;64.71;100281.31;7316260;19;129062;-39
2022/10/17 08:34:03;;;;;;;;;;;;;;;21.46;65.21;100279.53;7316395;19;130321;-40
2022/10/17 08:36:29;;;;;;;;;;;;;;;21.43;64.65;100278.00;7314934;19;129519;-40
2022/10/17 08:38:54;;;;;;;;;;;;;;;21.46;65.00;100285.59;7315434;19;129409;-37
2022/10/17 08:41:28;;;;;;;;;;;;;;;21.40;64.86;100272.19;7315291;19;128828;-38
2022/10/17 08:43:56;;;;;;;;;;;;;;;21.50;64.78;100280.97;7315644;19;129400;-40
2022/10/17 08:46:22;;;;;;;;;;;;;;;21.46;65.13;100280.38;7315860;19;130146;-40
2022/10/17 08:48:48;;;;;;;;;;;;;;;21.44;65.17;100279.66;7313833;19;129195;-37
2022/10/17 08:51:16;;;;;;;;;;;;;;;21.43;64.59;100283.22;7315740;19;129730;-40
2022/10/17 08:53:50;;;;;;;;;;;;;;;21.43;65.18;100285.84;7311680;19;130146;-38
2022/10/17 08:56:26;;;;;;;;;;;;;;;21.43;64.93;100285.84;7315444;19;129735;-38
2022/10/17 08:58:51;;;;;;;;;;;;;;;21.43;65.00;100285.84;7316260;19;129359;-37
2022/10/17 09:01:43;;;;;;;;;;;;;;;21.49;64.63;100289.75;7315762;19;129077;-38
2022/10/17 09:04:08;;;;;;;;;;;;;;;21.49;64.97;100284.50;7313595;19;128793;-39
2022/10/17 09:06:36;;;;;;;;;;;;;;;21.46;64.34;100275.13;7314428;19;129461;-41
2022/10/17 09:09:08;;;;;;;;;;;;;;;21.49;64.38;100280.13;7316382;19;129841;-38
2022/10/17 09:11:40;;;;;;;;;;;;;;;21.46;64.75;100280.38;7313872;19;130337;-37
2022/10/17 09:14:05;;;;;;;;;;;;;;;21.48;64.88;100277.63;7315908;19;129707;-41
2022/10/17 09:16:47;;;;;;;;;;;;;;;21.46;65.05;100274.28;7314657;19;130266;-40
2022/10/17 09:19:21;;;;;;;;;;;;;;;21.47;64.96;100276.78;7315177;19;130428;-41
2022/10/17 09:21:52;;;;;;;;;;;;;;;21.48;64.95;100275.84;7308799;19;145348;-39
2022/10/17 09:24:36;;;;;;;;;;;;;;;21.50;64.21;100281.78;7313485;19;129290;-38
2022/10/17 09:27:01;;;;;;;;;;;;;;;21.50;64.38;100278.34;7312135;19;131402;-39
2022/10/17 09:29:28;;;;;;;;;;;;;;;21.47;64.38;100273.34;7314912;19;130374;-39
2022/10/17 09:31:59;;;;;;;;;;;;;;;21.50;64.69;100279.16;7313098;19;129895;-40
2022/10/17 09:34:26;;;;;;;;;;;;;;;21.51;64.38;100272.97;7314598;19;129581;-40
2022/10/17 09:36:51;;;;;;;;;;;;;;;21.47;64.16;100282.03;7314025;19;130191;-39
2022/10/17 09:39:18;;;;;;;;;;;;;;;21.51;64.46;100272.97;7308479;19;130170;-37
2022/10/17 09:41:47;;;;;;;;;;;;;;;21.51;64.56;100278.22;7314863;19;129455;-39
2022/10/17 09:44:28;;;;;;;;;;;;;;;21.49;64.93;100279.28;7312753;19;129359;-40
2022/10/17 09:47:12;;;;;;;;;;;;;;;21.48;64.76;100286.31;7314723;19;130085;-39
2022/10/17 09:49:38;;;;;;;;;;;;;;;21.36;64.45;100262.91;7314030;19;131272;-40
2022/10/17 09:52:05;;;;;;;;;;;;;;;21.46;64.35;100280.38;7313489;19;129253;-40
2022/10/17 09:54:50;;;;;;;;;;;;;;;21.44;65.14;100268.34;7315168;19;129588;-37
2022/10/17 09:57:16;;;;;;;;;;;;;;;21.44;64.92;100266.56;7313759;19;130249;-38
2022/10/17 09:59:46;;;;;;;;;;;;;;;21.46;64.86;100274.28;7312827;19;129707;-40
2022/10/17 10:02:11;;;;;;;;;;;;;;;21.49;65.05;100280.13;7313520;19;129121;-38
2022/10/17 10:05:12;;;;;;;;;;;;;;;21.46;65.14;100269.06;7312399;19;130625;-40
2022/10/17 10:07:38;;;;;;;;;;;;;;;21.43;65.29;100272.78;7307066;19;131037;-40
2022/10/17 10:10:05;;;;;;;;;;;;;;;21.44;65.22;100271.81;7313637;19;130569;-39
2022/10/17 10:12:33;;;;;;;;;;;;;;;21.43;65.21;100275.38;7311728;19;130041;-39
2022/10/17 10:14:58;;;;;;;;;;;;;;;21.46;64.80;100276.91;7314448;19;130352;-38
2022/10/17 10:17:28;;;;;;;;;;;;;;;21.49;65.01;100280.13;7311750;19;129759;-40
2022/10/17 10:19:53;;;;;;;;;;;;;;;21.43;64.79;100280.63;7313702;19;129649;-38
2022/10/17 10:22:22;;;;;;;;;;;;;;;21.46;65.07;100282.16;7312301;19;129039;-37
2022/10/17 10:25:05;;;;;;;;;;;;;;;21.44;64.90;100274.41;7312601;19;129311;-38
2022/10/17 10:27:30;;;;;;;;;;;;;;;21.43;64.63;100280.63;7309583;19;130005;-39
2022/10/17 10:29:55;;;;;;;;;;;;;;;21.44;64.47;100277.03;7312538;19;130346;-39
2022/10/17 10:32:20;;;;;;;;;;;;;;;21.44;64.58;100274.41;7311362;19;129276;-40
2022/10/17 10:34:57;;;;;;;;;;;;;;;21.47;64.90;100284.63;7313142;19;129285;-40
2022/10/17 10:37:33;;;;;;;;;;;;;;;21.44;64.72;100277.03;7308307;19;130346;-40
2022/10/17 10:40:00;;;;;;;;;;;;;;;21.47;64.53;100266.31;7312510;19;130777;-38
2022/10/17 10:42:30;;;;;;;;;;;;;;;21.49;64.42;100259.19;7311596;19;128979;-39
2022/10/17 10:45:01;;;;;;;;;;;;;;;21.36;65.20;100236.75;7312221;19;129262;-38
2022/10/17 10:47:27;;;;;;;;;;;;;;;21.45;65.00;100252.53;7311850;19;129437;-40
2022/10/17 10:50:06;;;;;;;;;;;;;;;21.47;64.52;100250.63;7311967;19;131338;-40
2022/10/17 10:52:42;;;;;;;;;;;;;;;21.49;64.77;100250.50;7309451;19;129858;-37
2022/10/17 10:55:16;;;;;;;;;;;;;;;21.45;64.90;100257.75;7312134;19;129781;-39
2022/10/17 10:57:43;;;;;;;;;;;;;;;21.40;64.63;100252.06;7309811;19;129318;-39
2022/10/17 11:00:20;;;;;;;;;;;;;;;21.42;64.30;100246.72;7312463;19;131434;-38
2022/10/17 11:02:52;;;;;;;;;;;;;;;21.52;64.20;100269.41;7311389;19;130658;-40
2022/10/17 11:05:26;;;;;;;;;;;;;;;21.50;64.77;100266.06;7310725;19;129020;-38
2022/10/17 11:08:02;;;;;;;;;;;;;;;21.49;64.61;100271.44;7309403;19;129144;-37
2022/10/17 11:10:34;;;;;;;;;;;;;;;21.33;65.00;100245.69;7311682;19;130533;-40
2022/10/17 11:13:03;;;;;;;;;;;;;;;21.45;65.00;100270.84;7310132;19;128931;-38
2022/10/17 11:15:38;;;;;;;;;;;;;;;21.46;64.43;100263.84;7311837;19;129583;-40
2022/10/17 11:18:05;;;;;;;;;;;;;;;21.47;64.53;100261.09;7310575;19;129179;-38
2022/10/17 11:20:50;;;;;;;;;;;;;;;21.46;64.54;100259.44;7319252;19;129710;-39
2022/10/17 11:23:22;;;;;;;;;;;;;;;21.46;65.32;100258.59;7316877;19;129161;-40
2022/10/17 11:25:49;;;;;;;;;;;;;;;21.47;65.14;100255.03;7315844;19;130219;-39
2022/10/17 11:28:18;;;;;;;;;;;;;;;21.47;64.81;100250.63;7317840;19;129103;-39
2022/10/17 11:30:54;;;;;;;;;;;;;;;21.48;64.56;100246.22;7318273;19;130255;-39
2022/10/17 11:33:26;;;;;;;;;;;;;;;21.45;65.08;100239.44;7318442;19;130337;-39
2022/10/17 11:35:53;;;;;;;;;;;;;;;21.42;65.22;100237.09;7317808;19;129581;-39
2022/10/17 11:38:21;;;;;;;;;;;;;;;21.45;65.21;100236.81;7317321;19;130107;-40
2022/10/17 11:40:50;;;;;;;;;;;;;;;21.45;64.36;100228.97;7317043;19;130344;-39
2022/10/17 11:43:26;;;;;;;;;;;;;;;21.46;64.53;100233.28;7316089;19;129810;-39
2022/10/17 11:45:54;;;;;;;;;;;;;;;21.46;64.72;100235.91;7316564;19;129067;-39
2022/10/17 11:48:22;;;;;;;;;;;;;;;21.47;64.51;100228.88;7316718;19;130731;-39
2022/10/17 11:50:50;;;;;;;;;;;;;;;21.45;64.62;100221.13;7317620;19;129285;-38
2022/10/17 11:53:18;;;;;;;;;;;;;;;21.47;64.75;100223.66;7315829;19;129091;-40
2022/10/17 11:55:44;;;;;;;;;;;;;;;21.38;64.67;100212.13;7318162;19;129160;-39
2022/10/17 11:58:15;;;;;;;;;;;;;;;21.34;64.87;100202.88;7315300;19;130344;-38
2022/10/17 12:00:53;;;;;;;;;;;;;;;21.44;64.63;100214.25;7315459;19;130233;-39
2022/10/17 12:03:21;;;;;;;;;;;;;;;21.45;64.86;100205.44;7316917;19;129465;-39
2022/10/17 12:05:47;;;;;;;;;;;;;;;21.47;64.58;100207.97;7314858;19;130361;-40
2022/10/17 12:08:22;;;;;;;;;;;;;;;21.37;64.98;100191.34;7315467;19;130056;-40
2022/10/17 12:10:54;;;;;;;;;;;;;;;21.34;65.18;100189.78;7316911;19;129475;-38
2022/10/17 12:13:32;;;;;;;;;;;;;;;21.46;64.75;100201.88;7313740;19;130090;-37
2022/10/17 12:16:18;;;;;;;;;;;;;;;21.47;64.89;100194.88;7312956;19;129155;-37
2022/10/17 12:18:43;;;;;;;;;;;;;;;21.41;64.48;100169.19;7316389;19;130931;-38
2022/10/17 12:21:08;;;;;;;;;;;;;;;21.46;64.71;100175.72;7317162;19;129095;-38
2022/10/17 12:23:35;;;;;;;;;;;;;;;21.36;64.67;100159.13;7313041;19;129964;-39
2022/10/17 12:26:04;;;;;;;;;;;;;;;21.47;64.69;100179.19;7313872;19;129130;-38
2022/10/17 12:28:31;;;;;;;;;;;;;;;21.43;65.28;100180.38;7316380;19;131091;-40
2022/10/17 12:31:14;;;;;;;;;;;;;;;21.42;64.66;100184.75;7316308;19;129792;-39
2022/10/17 12:33:59;;;;;;;;;;;;;;;21.45;65.05;100176.66;7315348;19;128744;-40